createdAt,value
2019-05-30T00:01:20.362Z,100168.59
2019-05-30T00:03:50.802Z,100163.76
2019-05-30T00:06:21.676Z,100163.92
2019-05-30T00:08:54.340Z,100160.60
2019-05-30T00:11:25.130Z,100166.22
2019-05-30T00:13:56.669Z,100163.92
2019-05-30T00:16:28.736Z,100167.21
2019-05-30T00:19:00.795Z,100164.05
2019-05-30T00:21:32.140Z,100162.25
2019-05-30T00:24:04.197Z,100171.93
2019-05-30T00:26:35.095Z,100182.67
2019-05-30T00:29:06.692Z,100178.67
2019-05-30T00:31:37.588Z,100179.31
2019-05-30T00:34:08.729Z,100187.58
2019-05-30T00:36:39.543Z,100183.61
2019-05-30T00:39:10.339Z,100188.34
2019-05-30T00:41:41.010Z,100194.62
2019-05-30T00:44:11.975Z,100202.40
2019-05-30T00:46:42.928Z,100203.69
2019-05-30T00:49:13.425Z,100198.55
2019-05-30T00:51:44.214Z,100204.36
2019-05-30T00:54:15.523Z,100207.64
2019-05-30T00:56:47.830Z,100218.70
2019-05-30T00:59:18.654Z,100223.78
2019-05-30T01:01:49.266Z,100223.58
2019-05-30T01:04:19.946Z,100221.88
2019-05-30T01:06:50.650Z,100219.52
2019-05-30T01:09:21.366Z,100219.66
2019-05-30T01:11:51.926Z,100217.55
2019-05-30T01:14:22.630Z,100212.91
2019-05-30T01:16:54.073Z,100211.41
2019-05-30T01:19:24.708Z,100208.61
2019-05-30T01:21:57.057Z,100211.41
2019-05-30T01:24:28.141Z,100215.06
2019-05-30T01:27:01.321Z,100224.30
2019-05-30T01:29:32.617Z,100224.94
2019-05-30T01:32:22.186Z,100224.73
2019-05-30T01:34:52.962Z,100218.27
2019-05-30T01:37:24.702Z,100230.34
2019-05-30T01:39:55.492Z,100233.13
2019-05-30T01:42:26.410Z,100226.77
2019-05-30T01:44:58.216Z,100227.33
2019-05-30T01:47:29.250Z,100229.64
2019-05-30T01:50:00.397Z,100227.27
2019-05-30T01:52:32.530Z,100218.23
2019-05-30T01:55:04.620Z,100227.73
2019-05-30T01:57:35.378Z,100220.13
2019-05-30T02:00:18.786Z,100213.78
2019-05-30T02:02:39.756Z,100221.28
2019-05-30T02:05:13.353Z,100230.89
2019-05-30T02:07:45.129Z,100228.51
2019-05-30T02:10:16.282Z,100243.34
2019-05-30T02:12:47.131Z,100239.69
2019-05-30T02:15:18.655Z,100245.20
2019-05-30T02:17:49.559Z,100243.72
2019-05-30T02:20:20.661Z,100246.06
2019-05-30T02:22:51.298Z,100242.78
2019-05-30T02:25:23.807Z,100247.05
2019-05-30T02:27:54.720Z,100252.20
2019-05-30T02:30:25.513Z,100251.47
2019-05-30T02:32:57.158Z,100257.30
2019-05-30T02:35:27.994Z,100259.30
2019-05-30T02:37:58.673Z,100261.69
2019-05-30T02:40:29.703Z,100258.84
2019-05-30T02:43:01.213Z,100267.09
2019-05-30T02:45:32.478Z,100265.64
2019-05-30T02:48:03.898Z,100263.70
2019-05-30T02:50:36.583Z,100259.26
2019-05-30T02:53:08.752Z,100262.39
2019-05-30T02:55:40.275Z,100262.12
2019-05-30T02:58:12.980Z,100265.83
2019-05-30T03:00:44.370Z,100260.11
2019-05-30T03:03:15.157Z,100257.39
2019-05-30T03:05:47.040Z,100267.01
2019-05-30T03:08:18.421Z,100265.33
2019-05-30T03:10:50.742Z,100253.58
2019-05-30T03:13:22.936Z,100257.23
2019-05-30T03:15:55.241Z,100253.08
2019-05-30T03:18:25.927Z,100260.03
2019-05-30T03:20:56.525Z,100276.30
2019-05-30T03:23:27.425Z,100266.41
2019-05-30T03:25:58.339Z,100272.75
2019-05-30T03:28:29.235Z,100274.28
2019-05-30T03:31:04.372Z,100276.23
2019-05-30T03:33:40.243Z,100274.06
2019-05-30T03:36:14.347Z,100277.05
2019-05-30T03:38:41.055Z,100284.60
2019-05-30T03:41:12.234Z,100287.00
2019-05-30T03:43:45.651Z,100288.23
2019-05-30T03:46:20.203Z,100291.67
2019-05-30T03:48:54.334Z,100294.17
2019-05-30T03:51:27.104Z,100281.38
2019-05-30T03:53:57.670Z,100284.34
2019-05-30T03:56:39.453Z,100289.88
2019-05-30T03:59:41.345Z,100284.45
2019-05-30T04:02:57.286Z,100293.44
2019-05-30T04:05:32.169Z,100293.31
2019-05-30T04:08:07.087Z,100298.58
2019-05-30T04:10:41.533Z,100302.52
2019-05-30T04:13:33.001Z,100294.23
2019-05-30T04:16:03.399Z,100299.84
2019-05-30T04:18:33.737Z,100294.97
2019-05-30T04:21:04.179Z,100300.33
2019-05-30T04:23:35.193Z,100295.17
2019-05-30T04:26:07.414Z,100290.00
2019-05-30T04:28:38.110Z,100298.28
2019-05-30T04:31:09.941Z,100292.77
2019-05-30T04:33:40.865Z,100291.08
2019-05-30T04:36:12.492Z,100295.62
2019-05-30T04:38:43.066Z,100300.77
2019-05-30T04:41:15.706Z,100301.52
2019-05-30T04:43:45.895Z,100301.08
2019-05-30T04:46:18.632Z,100294.55
2019-05-30T04:48:48.463Z,100302.67
2019-05-30T04:51:21.223Z,100307.09
2019-05-30T04:53:51.630Z,100302.25
2019-05-30T04:56:23.174Z,100306.78
2019-05-30T04:58:53.729Z,100309.00
2019-05-30T05:01:24.445Z,100305.04
2019-05-30T05:03:56.328Z,100310.36
2019-05-30T05:06:27.140Z,100302.73
2019-05-30T05:08:57.804Z,100313.80
2019-05-30T05:11:28.429Z,100305.58
2019-05-30T05:13:59.267Z,100311.15
2019-05-30T05:16:35.490Z,100307.09
2019-05-30T05:19:03.973Z,100316.66
2019-05-30T05:21:34.821Z,100320.70
2019-05-30T05:24:06.917Z,100323.08
2019-05-30T05:26:37.831Z,100328.59
2019-05-30T05:29:08.767Z,100333.25
2019-05-30T05:31:59.702Z,100330.81
2019-05-30T05:34:30.264Z,100331.04
2019-05-30T05:37:01.250Z,100341.12
2019-05-30T05:39:32.727Z,100338.30
2019-05-30T05:42:03.400Z,100343.25
2019-05-30T05:44:35.441Z,100354.21
2019-05-30T05:47:06.590Z,100354.21
2019-05-30T05:49:37.195Z,100356.22
2019-05-30T05:52:11.828Z,100356.22
2019-05-30T05:54:41.132Z,100355.42
2019-05-30T05:57:12.530Z,100362.89
2019-05-30T05:59:43.486Z,100351.02
2019-05-30T06:02:14.299Z,100355.91
2019-05-30T06:04:45.846Z,100361.80
2019-05-30T06:07:18.225Z,100371.34
2019-05-30T06:09:52.354Z,100369.02
2019-05-30T06:12:55.716Z,100366.66
2019-05-30T06:15:27.355Z,100359.45
2019-05-30T06:18:15.410Z,100356.70
2019-05-30T06:20:48.104Z,100363.22
2019-05-30T06:23:25.726Z,100361.12
2019-05-30T06:26:20.392Z,100358.02
2019-05-30T06:29:03.155Z,100363.77
2019-05-30T06:31:52.832Z,100354.77
2019-05-30T06:34:46.906Z,100354.24
2019-05-30T06:37:19.253Z,100355.06
2019-05-30T06:39:51.389Z,100351.20
2019-05-30T06:42:22.288Z,100352.90
2019-05-30T06:44:59.340Z,100353.62
2019-05-30T06:47:30.562Z,100358.61
2019-05-30T06:50:01.497Z,100360.41
2019-05-30T06:52:32.377Z,100350.38
2019-05-30T06:55:05.783Z,100346.20
2019-05-30T06:57:53.963Z,100360.95
2019-05-30T07:00:26.495Z,100364.95
2019-05-30T07:03:01.193Z,100353.62
2019-05-30T07:05:34.284Z,100360.20
2019-05-30T07:08:05.742Z,100363.50
2019-05-30T07:10:36.528Z,100357.88
2019-05-30T07:13:07.594Z,100356.70
2019-05-30T07:15:42.509Z,100356.63
2019-05-30T07:18:13.311Z,100351.81
2019-05-30T07:20:55.045Z,100358.08
2019-05-30T07:23:39.464Z,100362.78
2019-05-30T07:26:09.947Z,100356.81
2019-05-30T07:28:40.366Z,100359.70
2019-05-30T07:31:11.107Z,100357.08
2019-05-30T07:33:41.793Z,100364.55
2019-05-30T07:36:13.990Z,100360.16
2019-05-30T07:38:44.825Z,100358.43
2019-05-30T07:41:17.480Z,100365.33
2019-05-30T07:43:48.185Z,100369.92
2019-05-30T07:46:18.886Z,100375.69
2019-05-30T07:48:49.692Z,100380.35
2019-05-30T07:51:20.415Z,100378.97
2019-05-30T07:54:00.970Z,100386.17
2019-05-30T07:56:31.417Z,100389.59
2019-05-30T07:59:01.929Z,100386.56
2019-05-30T08:01:32.633Z,100391.13
2019-05-30T08:04:04.879Z,100389.98
2019-05-30T08:06:59.469Z,100388.37
2019-05-30T08:09:32.932Z,100392.42
2019-05-30T08:12:04.716Z,100387.03
2019-05-30T08:14:35.370Z,100387.30
2019-05-30T08:17:06.573Z,100392.50
2019-05-30T08:20:07.745Z,100389.05
2019-05-30T08:22:55.988Z,100389.34
2019-05-30T08:25:39.988Z,100388.50
2019-05-30T08:28:18.862Z,100396.40
2019-05-30T08:30:52.704Z,100398.09
2019-05-30T08:33:23.499Z,100396.61
2019-05-30T08:35:53.863Z,100398.40
2019-05-30T08:38:24.300Z,100402.44
2019-05-30T08:40:54.822Z,100407.88
2019-05-30T08:43:25.258Z,100409.16
2019-05-30T08:45:56.122Z,100404.97
2019-05-30T08:48:26.504Z,100409.56
2019-05-30T08:50:56.862Z,100415.05
2019-05-30T08:53:27.312Z,100419.02
2019-05-30T08:55:58.007Z,100415.28
2019-05-30T08:58:28.334Z,100422.17
2019-05-30T09:00:58.780Z,100423.13
2019-05-30T09:03:29.574Z,100420.84
2019-05-30T09:06:04.215Z,100416.16
2019-05-30T09:08:32.401Z,100422.60
2019-05-30T09:11:02.844Z,100423.56
2019-05-30T09:13:33.701Z,100423.37
2019-05-30T09:16:04.878Z,100424.39
2019-05-30T09:18:37.969Z,100426.61
2019-05-30T09:21:08.684Z,100420.00
2019-05-30T09:23:41.017Z,100417.83
2019-05-30T09:26:12.288Z,100427.66
2019-05-30T09:28:44.238Z,100427.34
2019-05-30T09:31:14.933Z,100427.05
2019-05-30T09:33:46.649Z,100424.58
2019-05-30T09:36:17.476Z,100427.15
2019-05-30T09:38:49.641Z,100423.11
2019-05-30T09:41:21.181Z,100424.00
2019-05-30T09:43:51.727Z,100426.18
2019-05-30T09:46:22.719Z,100429.99
2019-05-30T09:48:53.719Z,100425.58
2019-05-30T09:51:24.523Z,100429.17
2019-05-30T09:53:55.391Z,100426.78
2019-05-30T09:56:26.259Z,100431.53
2019-05-30T09:58:56.925Z,100420.87
2019-05-30T10:01:27.700Z,100423.02
2019-05-30T10:03:58.663Z,100423.74
2019-05-30T10:06:30.276Z,100416.41
2019-05-30T10:09:01.265Z,100417.25
2019-05-30T10:11:33.112Z,100420.14
2019-05-30T10:14:04.158Z,100424.98
2019-05-30T10:16:37.392Z,100422.41
2019-05-30T10:19:08.493Z,100426.73
2019-05-30T10:21:39.326Z,100400.34
2019-05-30T10:24:11.587Z,100427.24
2019-05-30T10:26:43.307Z,100433.12
2019-05-30T10:29:14.002Z,100427.77
2019-05-30T10:31:46.391Z,100426.95
2019-05-30T10:34:17.342Z,100422.30
2019-05-30T10:36:49.190Z,100426.22
2019-05-30T10:39:20.648Z,100428.77
2019-05-30T10:41:51.272Z,100424.37
2019-05-30T10:44:23.116Z,100421.17
2019-05-30T10:46:54.585Z,100427.97
2019-05-30T10:49:34.127Z,100432.30
2019-05-30T10:51:59.446Z,100433.87
2019-05-30T10:54:31.660Z,100427.54
2019-05-30T10:57:02.509Z,100425.52
2019-05-30T10:59:33.220Z,100425.11
2019-05-30T11:02:04.071Z,100425.15
2019-05-30T11:04:34.969Z,100426.12
2019-05-30T11:07:14.485Z,100423.92
2019-05-30T11:09:48.749Z,100424.68
2019-05-30T11:12:19.470Z,100430.88
2019-05-30T11:14:51.574Z,100433.14
2019-05-30T11:17:22.531Z,100435.73
2019-05-30T11:19:54.039Z,100434.63
2019-05-30T11:22:26.921Z,100425.97
2019-05-30T11:24:59.389Z,100420.94
2019-05-30T11:27:30.339Z,100422.91
2019-05-30T11:30:01.356Z,100422.69
2019-05-30T11:32:32.874Z,100424.24
2019-05-30T11:35:03.732Z,100419.27
2019-05-30T11:37:37.661Z,100418.84
2019-05-30T11:40:10.358Z,100418.73
2019-05-30T11:42:41.273Z,100424.98
2019-05-30T11:45:12.372Z,100420.37
2019-05-30T11:47:43.437Z,100419.19
2019-05-30T11:50:16.314Z,100421.30
2019-05-30T11:52:49.814Z,100428.69
2019-05-30T11:55:21.671Z,100425.54
2019-05-30T11:57:52.379Z,100426.38
2019-05-30T12:00:23.665Z,100421.38
2019-05-30T12:02:54.480Z,100420.82
2019-05-30T12:05:25.597Z,100426.68
2019-05-30T12:07:56.994Z,100425.52
2019-05-30T12:10:29.070Z,100426.38
2019-05-30T12:12:59.851Z,100429.68
2019-05-30T12:15:30.951Z,100428.80
2019-05-30T12:18:02.456Z,100431.13
2019-05-30T12:20:33.336Z,100425.20
2019-05-30T12:23:03.982Z,100415.69
2019-05-30T12:25:34.931Z,100416.73
2019-05-30T12:30:54.388Z,100423.16
2019-05-30T12:33:11.934Z,100426.14
2019-05-30T12:35:42.894Z,100420.59
2019-05-30T12:38:14.783Z,100415.34
2019-05-30T12:40:45.624Z,100422.46
2019-05-30T12:43:16.522Z,100419.50
2019-05-30T12:45:48.716Z,100414.25
2019-05-30T12:48:19.764Z,100412.84
2019-05-30T12:50:50.733Z,100411.64
2019-05-30T12:53:21.258Z,100402.14
2019-05-30T12:55:54.321Z,100413.50
2019-05-30T12:58:25.243Z,100413.19
2019-05-30T13:00:56.680Z,100408.44
2019-05-30T13:03:27.945Z,100405.52
2019-05-30T13:05:59.190Z,100404.87
2019-05-30T13:08:30.262Z,100406.57
2019-05-30T13:11:01.757Z,100395.81
2019-05-30T13:13:32.744Z,100398.62
2019-05-30T13:16:07.160Z,100396.28
2019-05-30T13:18:36.777Z,100403.11
2019-05-30T13:21:08.933Z,100400.63
2019-05-30T20:36:20.006Z,100494.32
2019-05-30T20:39:15.040Z,100497.52
2019-05-30T20:41:47.712Z,100497.52
2019-05-30T20:44:18.973Z,100494.37
2019-05-30T20:46:51.309Z,100489.89
2019-05-30T20:49:22.713Z,100484.77
2019-05-30T20:51:53.511Z,100485.13
2019-05-30T20:54:26.010Z,100486.80
2019-05-30T20:56:57.447Z,100483.82
2019-05-30T20:59:31.502Z,100491.14
2019-05-30T21:02:05.066Z,100493.81
2019-05-30T21:05:04.679Z,100491.33
2019-05-30T21:07:37.773Z,100489.82
2019-05-30T21:10:08.869Z,100487.50
2019-05-30T21:12:44.439Z,100482.17
2019-05-30T21:15:15.962Z,100488.66
2019-05-30T21:17:48.155Z,100491.98
2019-05-30T21:20:23.076Z,100492.83
2019-05-30T21:22:53.875Z,100496.30
2019-05-30T21:25:24.618Z,100504.64
2019-05-30T21:27:55.541Z,100507.19
2019-05-30T21:30:27.013Z,100514.36
2019-05-30T21:32:59.108Z,100516.59
2019-05-30T21:35:37.572Z,100517.05
2019-05-30T21:38:08.635Z,100518.95
2019-05-30T21:40:44.453Z,100514.12
2019-05-30T21:43:15.599Z,100509.28
2019-05-30T21:45:48.962Z,100503.64
2019-05-30T21:48:20.054Z,100499.17
2019-05-30T21:50:51.221Z,100507.81
2019-05-30T21:53:22.052Z,100505.16
2019-05-30T21:55:55.959Z,100521.17
2019-05-30T21:58:28.830Z,100519.63
2019-05-30T22:01:36.611Z,100519.48
2019-05-30T22:04:08.552Z,100515.00
2019-05-30T22:06:40.745Z,100517.81
2019-05-30T22:09:12.776Z,100513.00
2019-05-30T22:11:43.757Z,100513.86
2019-05-30T22:14:16.587Z,100508.03
2019-05-30T22:16:48.032Z,100507.16
2019-05-30T22:19:18.697Z,100503.48
2019-05-30T22:21:50.246Z,100504.80
2019-05-30T22:24:22.412Z,100500.14
2019-05-30T22:26:53.275Z,100491.45
2019-05-30T22:29:25.275Z,100485.98
2019-05-30T22:31:56.697Z,100484.96
2019-05-30T22:34:27.541Z,100487.76
2019-05-30T22:36:58.093Z,100490.09
2019-05-30T22:39:28.898Z,100481.77
2019-05-30T22:41:59.448Z,100486.12
2019-05-30T22:44:30.179Z,100485.55
2019-05-30T22:47:01.128Z,100485.24
2019-05-30T22:49:31.973Z,100489.28
2019-05-30T22:52:04.434Z,100483.59
2019-05-30T22:54:36.528Z,100491.59
2019-05-30T22:57:07.691Z,100488.44
2019-05-30T22:59:38.394Z,100489.95
2019-05-30T23:02:10.071Z,100487.15
2019-05-30T23:04:40.682Z,100496.64
2019-05-30T23:07:12.404Z,100493.31
2019-05-30T23:09:43.598Z,100494.30
2019-05-30T23:12:14.811Z,100494.81
2019-05-30T23:14:46.717Z,100495.63
2019-05-30T23:17:18.065Z,100484.00
2019-05-30T23:19:48.863Z,100486.27
2019-05-30T23:22:19.894Z,100483.95
2019-05-30T23:24:52.276Z,100486.40
2019-05-30T23:27:23.646Z,100484.93
2019-05-30T23:29:54.471Z,100483.29
2019-05-30T23:32:25.339Z,100483.60
2019-05-30T23:34:56.477Z,100482.27
2019-05-30T23:37:27.558Z,100479.48
2019-05-30T23:39:58.998Z,100486.97
2019-05-30T23:42:29.441Z,100483.66
2019-05-30T23:45:00.164Z,100487.33
2019-05-30T23:47:31.033Z,100488.52
2019-05-30T23:50:01.825Z,100490.83
2019-05-30T23:52:32.765Z,100491.31
2019-05-30T23:55:03.455Z,100488.30
2019-05-30T23:57:34.252Z,100486.94
